sensor_id;sensor_type;location;lat;lon;timestamp;P1;durP1;ratioP1;P2;durP2;ratioP2
479;SDS011;226;48.606;9.096;2023-07-20T00:00:35;2.90;;;1.83;;
479;SDS011;226;48.606;9.096;2023-07-20T00:03:10;4.70;;;2.00;;
479;SDS011;226;48.606;9.096;2023-07-20T00:05:43;3.07;;;2.30;;
479;SDS011;226;48.606;9.096;2023-07-20T00:08:11;6.77;;;1.87;;
479;SDS011;226;48.606;9.096;2023-07-20T00:10:41;5.53;;;2.10;;
479;SDS011;226;48.606;9.096;2023-07-20T00:13:10;8.00;;;2.20;;
479;SDS011;226;48.606;9.096;2023-07-20T00:15:39;15.33;;;1.87;;
479;SDS011;226;48.606;9.096;2023-07-20T00:18:07;5.50;;;2.93;;
479;SDS011;226;48.606;9.096;2023-07-20T00:20:36;6.13;;;2.33;;
479;SDS011;226;48.606;9.096;2023-07-20T00:23:04;3.87;;;1.97;;
479;SDS011;226;48.606;9.096;2023-07-20T00:25:34;2.80;;;2.23;;
479;SDS011;226;48.606;9.096;2023-07-20T00:28:04;3.20;;;2.33;;
479;SDS011;226;48.606;9.096;2023-07-20T00:30:33;5.40;;;2.10;;
479;SDS011;226;48.606;9.096;2023-07-20T00:33:01;3.93;;;2.33;;
479;SDS011;226;48.606;9.096;2023-07-20T00:35:29;3.30;;;2.00;;
479;SDS011;226;48.606;9.096;2023-07-20T00:37:58;1.80;;;1.70;;
479;SDS011;226;48.606;9.096;2023-07-20T00:40:26;3.20;;;2.13;;
479;SDS011;226;48.606;9.096;2023-07-20T00:42:55;7.40;;;2.23;;
479;SDS011;226;48.606;9.096;2023-07-20T00:45:25;1.97;;;1.80;;
479;SDS011;226;48.606;9.096;2023-07-20T00:47:54;2.60;;;2.23;;
479;SDS011;226;48.606;9.096;2023-07-20T00:50:22;2.83;;;1.53;;
479;SDS011;226;48.606;9.096;2023-07-20T00:52:51;4.97;;;2.60;;
479;SDS011;226;48.606;9.096;2023-07-20T00:55:20;3.20;;;2.20;;
479;SDS011;226;48.606;9.096;2023-07-20T00:57:48;3.00;;;2.30;;
479;SDS011;226;48.606;9.096;2023-07-20T01:00:17;3.47;;;1.97;;
479;SDS011;226;48.606;9.096;2023-07-20T01:02:47;2.33;;;1.87;;
479;SDS011;226;48.606;9.096;2023-07-20T01:05:16;6.67;;;2.03;;
479;SDS011;226;48.606;9.096;2023-07-20T01:07:46;4.10;;;2.70;;
479;SDS011;226;48.606;9.096;2023-07-20T01:10:22;2.50;;;2.03;;
479;SDS011;226;48.606;9.096;2023-07-20T01:12:53;3.97;;;2.53;;
479;SDS011;226;48.606;9.096;2023-07-20T01:15:23;4.83;;;2.93;;
479;SDS011;226;48.606;9.096;2023-07-20T01:17:53;7.00;;;3.03;;
479;SDS011;226;48.606;9.096;2023-07-20T01:20:21;4.60;;;2.70;;
479;SDS011;226;48.606;9.096;2023-07-20T01:23:11;3.20;;;2.53;;
479;SDS011;226;48.606;9.096;2023-07-20T01:25:54;3.87;;;1.87;;
479;SDS011;226;48.606;9.096;2023-07-20T01:31:21;2.77;;;2.53;;
479;SDS011;226;48.606;9.096;2023-07-20T01:33:52;3.03;;;2.30;;
479;SDS011;226;48.606;9.096;2023-07-20T01:36:22;4.90;;;2.50;;
479;SDS011;226;48.606;9.096;2023-07-20T01:38:51;3.17;;;2.30;;
479;SDS011;226;48.606;9.096;2023-07-20T01:41:20;4.73;;;2.10;;
479;SDS011;226;48.606;9.096;2023-07-20T01:43:49;3.13;;;2.40;;
479;SDS011;226;48.606;9.096;2023-07-20T01:46:17;2.87;;;2.53;;
479;SDS011;226;48.606;9.096;2023-07-20T01:48:47;2.10;;;1.77;;
479;SDS011;226;48.606;9.096;2023-07-20T01:51:17;5.33;;;2.40;;
479;SDS011;226;48.606;9.096;2023-07-20T01:53:45;3.13;;;2.30;;
479;SDS011;226;48.606;9.096;2023-07-20T01:56:14;3.50;;;2.67;;
479;SDS011;226;48.606;9.096;2023-07-20T01:58:42;3.53;;;2.17;;
479;SDS011;226;48.606;9.096;2023-07-20T02:01:11;7.33;;;2.37;;
479;SDS011;226;48.606;9.096;2023-07-20T02:03:39;7.90;;;2.70;;
479;SDS011;226;48.606;9.096;2023-07-20T02:06:09;3.70;;;2.60;;
479;SDS011;226;48.606;9.096;2023-07-20T02:08:38;4.00;;;2.30;;
479;SDS011;226;48.606;9.096;2023-07-20T02:11:06;5.33;;;2.83;;
479;SDS011;226;48.606;9.096;2023-07-20T02:13:36;3.37;;;2.77;;
479;SDS011;226;48.606;9.096;2023-07-20T02:16:04;4.70;;;2.17;;
479;SDS011;226;48.606;9.096;2023-07-20T02:18:33;3.90;;;2.13;;
479;SDS011;226;48.606;9.096;2023-07-20T02:21:01;6.70;;;3.10;;
479;SDS011;226;48.606;9.096;2023-07-20T02:23:31;4.17;;;2.60;;
479;SDS011;226;48.606;9.096;2023-07-20T02:26:00;3.80;;;2.37;;
479;SDS011;226;48.606;9.096;2023-07-20T02:28:29;3.23;;;2.23;;
479;SDS011;226;48.606;9.096;2023-07-20T02:30:59;4.07;;;2.50;;
479;SDS011;226;48.606;9.096;2023-07-20T02:33:28;3.00;;;2.70;;
479;SDS011;226;48.606;9.096;2023-07-20T02:35:56;6.40;;;3.17;;
479;SDS011;226;48.606;9.096;2023-07-20T02:38:24;2.33;;;2.10;;
479;SDS011;226;48.606;9.096;2023-07-20T02:40:54;4.97;;;2.40;;
479;SDS011;226;48.606;9.096;2023-07-20T02:43:22;4.00;;;2.40;;
479;SDS011;226;48.606;9.096;2023-07-20T02:45:51;3.50;;;2.00;;
479;SDS011;226;48.606;9.096;2023-07-20T02:48:19;5.83;;;2.50;;
479;SDS011;226;48.606;9.096;2023-07-20T02:50:48;2.73;;;2.53;;
479;SDS011;226;48.606;9.096;2023-07-20T02:53:16;4.23;;;3.03;;
479;SDS011;226;48.606;9.096;2023-07-20T02:55:45;9.90;;;3.00;;
479;SDS011;226;48.606;9.096;2023-07-20T02:58:15;3.10;;;2.80;;
479;SDS011;226;48.606;9.096;2023-07-20T03:00:43;4.63;;;2.70;;
479;SDS011;226;48.606;9.096;2023-07-20T03:03:12;5.90;;;3.03;;
479;SDS011;226;48.606;9.096;2023-07-20T03:05:40;3.03;;;2.67;;
479;SDS011;226;48.606;9.096;2023-07-20T03:08:09;2.93;;;2.60;;
479;SDS011;226;48.606;9.096;2023-07-20T03:10:38;4.80;;;3.00;;
479;SDS011;226;48.606;9.096;2023-07-20T03:13:07;2.97;;;2.47;;
479;SDS011;226;48.606;9.096;2023-07-20T03:15:37;3.67;;;2.50;;
479;SDS011;226;48.606;9.096;2023-07-20T03:18:05;4.60;;;2.87;;
479;SDS011;226;48.606;9.096;2023-07-20T03:20:34;3.17;;;2.70;;
479;SDS011;226;48.606;9.096;2023-07-20T03:23:03;5.83;;;2.93;;
479;SDS011;226;48.606;9.096;2023-07-20T03:25:32;10.67;;;3.47;;
479;SDS011;226;48.606;9.096;2023-07-20T03:28:03;3.00;;;2.43;;
479;SDS011;226;48.606;9.096;2023-07-20T03:30:32;5.60;;;2.90;;
479;SDS011;226;48.606;9.096;2023-07-20T03:33:02;5.97;;;2.60;;
479;SDS011;226;48.606;9.096;2023-07-20T03:35:31;3.43;;;2.70;;
479;SDS011;226;48.606;9.096;2023-07-20T03:37:59;4.50;;;2.83;;
479;SDS011;226;48.606;9.096;2023-07-20T03:40:28;5.27;;;2.87;;
479;SDS011;226;48.606;9.096;2023-07-20T03:42:56;3.60;;;2.77;;
479;SDS011;226;48.606;9.096;2023-07-20T03:45:24;5.13;;;2.60;;
479;SDS011;226;48.606;9.096;2023-07-20T03:47:53;3.17;;;2.03;;
479;SDS011;226;48.606;9.096;2023-07-20T03:50:23;2.03;;;1.83;;
479;SDS011;226;48.606;9.096;2023-07-20T03:52:51;6.70;;;2.70;;
479;SDS011;226;48.606;9.096;2023-07-20T03:55:19;4.07;;;3.13;;
479;SDS011;226;48.606;9.096;2023-07-20T03:57:48;6.70;;;2.77;;
479;SDS011;226;48.606;9.096;2023-07-20T04:00:17;2.57;;;2.37;;
479;SDS011;226;48.606;9.096;2023-07-20T04:02:45;3.67;;;2.40;;
479;SDS011;226;48.606;9.096;2023-07-20T04:05:14;2.40;;;2.20;;
479;SDS011;226;48.606;9.096;2023-07-20T04:07:44;3.77;;;2.90;;
479;SDS011;226;48.606;9.096;2023-07-20T04:10:13;5.20;;;2.93;;
479;SDS011;226;48.606;9.096;2023-07-20T04:12:41;4.30;;;2.93;;
479;SDS011;226;48.606;9.096;2023-07-20T04:15:10;4.03;;;2.50;;
479;SDS011;226;48.606;9.096;2023-07-20T04:17:38;5.20;;;3.10;;
479;SDS011;226;48.606;9.096;2023-07-20T04:20:07;10.13;;;3.30;;
479;SDS011;226;48.606;9.096;2023-07-20T04:22:36;7.87;;;2.93;;
479;SDS011;226;48.606;9.096;2023-07-20T04:25:06;2.37;;;2.20;;
479;SDS011;226;48.606;9.096;2023-07-20T04:27:36;5.27;;;2.60;;
479;SDS011;226;48.606;9.096;2023-07-20T04:30:06;5.13;;;2.40;;
479;SDS011;226;48.606;9.096;2023-07-20T04:32:35;6.83;;;2.90;;
479;SDS011;226;48.606;9.096;2023-07-20T04:35:05;5.30;;;3.10;;
479;SDS011;226;48.606;9.096;2023-07-20T04:37:33;5.00;;;3.93;;
479;SDS011;226;48.606;9.096;2023-07-20T04:40:02;5.60;;;3.00;;
479;SDS011;226;48.606;9.096;2023-07-20T04:42:32;4.83;;;2.93;;
479;SDS011;226;48.606;9.096;2023-07-20T04:45:01;3.80;;;2.90;;
479;SDS011;226;48.606;9.096;2023-07-20T04:47:30;4.03;;;2.80;;
479;SDS011;226;48.606;9.096;2023-07-20T04:49:59;7.93;;;2.90;;
479;SDS011;226;48.606;9.096;2023-07-20T04:52:27;5.50;;;2.40;;
479;SDS011;226;48.606;9.096;2023-07-20T04:55:08;4.83;;;2.20;;
479;SDS011;226;48.606;9.096;2023-07-20T04:57:38;3.27;;;2.47;;
479;SDS011;226;48.606;9.096;2023-07-20T05:00:06;3.10;;;2.40;;
479;SDS011;226;48.606;9.096;2023-07-20T05:02:37;3.40;;;2.33;;
479;SDS011;226;48.606;9.096;2023-07-20T05:05:06;4.80;;;2.70;;
479;SDS011;226;48.606;9.096;2023-07-20T05:07:35;5.20;;;3.03;;
479;SDS011;226;48.606;9.096;2023-07-20T05:10:04;8.70;;;3.70;;
479;SDS011;226;48.606;9.096;2023-07-20T05:12:32;5.33;;;3.00;;
479;SDS011;226;48.606;9.096;2023-07-20T05:15:03;4.90;;;3.00;;
479;SDS011;226;48.606;9.096;2023-07-20T05:17:31;3.93;;;2.37;;
479;SDS011;226;48.606;9.096;2023-07-20T05:20:00;4.20;;;3.10;;
479;SDS011;226;48.606;9.096;2023-07-20T05:22:30;4.30;;;2.60;;
479;SDS011;226;48.606;9.096;2023-07-20T05:24:58;5.23;;;2.40;;
479;SDS011;226;48.606;9.096;2023-07-20T05:27:27;4.20;;;2.17;;
479;SDS011;226;48.606;9.096;2023-07-20T05:29:55;2.50;;;2.17;;
479;SDS011;226;48.606;9.096;2023-07-20T05:32:26;3.70;;;2.47;;
479;SDS011;226;48.606;9.096;2023-07-20T05:34:54;2.77;;;2.47;;
479;SDS011;226;48.606;9.096;2023-07-20T05:37:23;3.10;;;2.00;;
479;SDS011;226;48.606;9.096;2023-07-20T05:39:51;6.27;;;3.00;;
479;SDS011;226;48.606;9.096;2023-07-20T05:42:20;2.83;;;1.90;;
479;SDS011;226;48.606;9.096;2023-07-20T05:44:48;2.30;;;2.07;;
479;SDS011;226;48.606;9.096;2023-07-20T05:47:19;2.70;;;1.90;;
479;SDS011;226;48.606;9.096;2023-07-20T05:49:49;2.80;;;2.37;;
479;SDS011;226;48.606;9.096;2023-07-20T05:52:17;6.10;;;2.10;;
479;SDS011;226;48.606;9.096;2023-07-20T05:54:46;3.07;;;2.20;;
479;SDS011;226;48.606;9.096;2023-07-20T05:57:14;3.60;;;1.90;;
479;SDS011;226;48.606;9.096;2023-07-20T05:59:43;3.23;;;1.90;;
479;SDS011;226;48.606;9.096;2023-07-20T06:02:11;2.00;;;1.90;;
479;SDS011;226;48.606;9.096;2023-07-20T06:04:39;2.03;;;1.93;;
479;SDS011;226;48.606;9.096;2023-07-20T06:07:09;3.70;;;1.90;;
479;SDS011;226;48.606;9.096;2023-07-20T06:09:37;3.23;;;1.73;;
479;SDS011;226;48.606;9.096;2023-07-20T06:12:06;2.60;;;2.17;;
479;SDS011;226;48.606;9.096;2023-07-20T06:14:35;4.20;;;2.20;;
479;SDS011;226;48.606;9.096;2023-07-20T06:17:04;3.43;;;2.63;;
479;SDS011;226;48.606;9.096;2023-07-20T06:19:33;3.07;;;2.03;;
479;SDS011;226;48.606;9.096;2023-07-20T06:22:02;3.20;;;2.37;;
479;SDS011;226;48.606;9.096;2023-07-20T06:24:32;3.90;;;2.20;;
479;SDS011;226;48.606;9.096;2023-07-20T06:27:00;4.63;;;2.90;;
479;SDS011;226;48.606;9.096;2023-07-20T06:29:28;2.93;;;2.03;;
479;SDS011;226;48.606;9.096;2023-07-20T06:31:57;2.60;;;2.10;;
479;SDS011;226;48.606;9.096;2023-07-20T06:34:26;4.10;;;2.57;;
479;SDS011;226;48.606;9.096;2023-07-20T06:36:55;4.30;;;2.30;;
479;SDS011;226;48.606;9.096;2023-07-20T06:39:24;3.70;;;2.53;;
479;SDS011;226;48.606;9.096;2023-07-20T06:41:56;4.30;;;2.20;;
479;SDS011;226;48.606;9.096;2023-07-20T06:44:25;5.20;;;2.27;;
479;SDS011;226;48.606;9.096;2023-07-20T06:46:53;4.23;;;2.07;;
479;SDS011;226;48.606;9.096;2023-07-20T06:49:25;3.03;;;2.00;;
479;SDS011;226;48.606;9.096;2023-07-20T06:51:54;2.50;;;2.27;;
479;SDS011;226;48.606;9.096;2023-07-20T06:54:22;3.70;;;2.13;;
479;SDS011;226;48.606;9.096;2023-07-20T06:56:51;1.97;;;1.70;;
479;SDS011;226;48.606;9.096;2023-07-20T06:59:23;5.73;;;2.63;;
479;SDS011;226;48.606;9.096;2023-07-20T07:01:52;6.20;;;2.80;;
479;SDS011;226;48.606;9.096;2023-07-20T07:04:20;4.53;;;2.17;;
479;SDS011;226;48.606;9.096;2023-07-20T07:06:49;9.53;;;2.13;;
479;SDS011;226;48.606;9.096;2023-07-20T07:09:17;3.53;;;2.00;;
479;SDS011;226;48.606;9.096;2023-07-20T07:11:45;3.10;;;2.80;;
479;SDS011;226;48.606;9.096;2023-07-20T07:14:14;4.13;;;2.17;;
479;SDS011;226;48.606;9.096;2023-07-20T07:16:44;4.20;;;1.73;;
479;SDS011;226;48.606;9.096;2023-07-20T07:19:12;3.40;;;2.57;;
479;SDS011;226;48.606;9.096;2023-07-20T07:21:41;2.20;;;2.00;;
479;SDS011;226;48.606;9.096;2023-07-20T07:24:09;4.50;;;2.50;;
479;SDS011;226;48.606;9.096;2023-07-20T07:26:38;2.87;;;2.33;;
479;SDS011;226;48.606;9.096;2023-07-20T07:29:06;3.50;;;2.60;;
479;SDS011;226;48.606;9.096;2023-07-20T07:31:35;3.07;;;2.50;;
479;SDS011;226;48.606;9.096;2023-07-20T07:34:06;1.90;;;1.80;;
479;SDS011;226;48.606;9.096;2023-07-20T07:36:34;3.70;;;2.20;;
479;SDS011;226;48.606;9.096;2023-07-20T07:39:03;2.70;;;2.43;;
479;SDS011;226;48.606;9.096;2023-07-20T07:41:34;3.00;;;2.37;;
479;SDS011;226;48.606;9.096;2023-07-20T07:44:03;2.80;;;2.00;;
479;SDS011;226;48.606;9.096;2023-07-20T07:46:31;7.40;;;2.40;;
479;SDS011;226;48.606;9.096;2023-07-20T07:49:00;3.00;;;1.73;;
479;SDS011;226;48.606;9.096;2023-07-20T07:51:30;3.47;;;1.90;;
479;SDS011;226;48.606;9.096;2023-07-20T07:53:58;2.60;;;2.00;;
479;SDS011;226;48.606;9.096;2023-07-20T07:56:27;2.50;;;1.90;;
479;SDS011;226;48.606;9.096;2023-07-20T07:58:55;5.20;;;2.90;;
479;SDS011;226;48.606;9.096;2023-07-20T08:01:24;7.03;;;2.10;;
479;SDS011;226;48.606;9.096;2023-07-20T08:03:53;3.40;;;2.63;;
479;SDS011;226;48.606;9.096;2023-07-20T08:06:21;8.70;;;3.10;;
479;SDS011;226;48.606;9.096;2023-07-20T08:08:52;4.10;;;2.57;;
479;SDS011;226;48.606;9.096;2023-07-20T08:11:20;5.90;;;2.50;;
479;SDS011;226;48.606;9.096;2023-07-20T08:13:49;2.97;;;2.57;;
479;SDS011;226;48.606;9.096;2023-07-20T08:16:17;6.20;;;2.73;;
479;SDS011;226;48.606;9.096;2023-07-20T08:18:46;4.37;;;2.70;;
479;SDS011;226;48.606;9.096;2023-07-20T08:21:14;2.53;;;2.33;;
479;SDS011;226;48.606;9.096;2023-07-20T08:23:43;3.70;;;2.20;;
479;SDS011;226;48.606;9.096;2023-07-20T08:26:12;5.57;;;3.00;;
479;SDS011;226;48.606;9.096;2023-07-20T08:28:42;6.93;;;2.73;;
479;SDS011;226;48.606;9.096;2023-07-20T08:31:10;3.93;;;2.10;;
479;SDS011;226;48.606;9.096;2023-07-20T08:33:39;4.00;;;2.50;;
479;SDS011;226;48.606;9.096;2023-07-20T08:36:07;4.37;;;2.60;;
479;SDS011;226;48.606;9.096;2023-07-20T08:38:37;3.40;;;2.60;;
479;SDS011;226;48.606;9.096;2023-07-20T08:41:06;2.27;;;2.07;;
479;SDS011;226;48.606;9.096;2023-07-20T08:43:36;3.20;;;2.50;;
479;SDS011;226;48.606;9.096;2023-07-20T08:46:05;2.00;;;1.90;;
479;SDS011;226;48.606;9.096;2023-07-20T08:48:33;4.80;;;2.37;;
479;SDS011;226;48.606;9.096;2023-07-20T08:51:02;2.13;;;1.87;;
479;SDS011;226;48.606;9.096;2023-07-20T08:53:32;5.90;;;2.20;;
479;SDS011;226;48.606;9.096;2023-07-20T08:56:00;4.00;;;2.60;;
479;SDS011;226;48.606;9.096;2023-07-20T08:58:30;3.97;;;2.67;;
479;SDS011;226;48.606;9.096;2023-07-20T09:01:01;3.80;;;2.50;;
479;SDS011;226;48.606;9.096;2023-07-20T09:03:30;2.90;;;2.00;;
479;SDS011;226;48.606;9.096;2023-07-20T09:05:59;2.83;;;2.30;;
479;SDS011;226;48.606;9.096;2023-07-20T09:08:27;4.63;;;2.30;;
479;SDS011;226;48.606;9.096;2023-07-20T09:10:56;3.40;;;2.53;;
479;SDS011;226;48.606;9.096;2023-07-20T09:13:24;2.30;;;1.93;;
479;SDS011;226;48.606;9.096;2023-07-20T09:15:54;3.10;;;2.50;;
479;SDS011;226;48.606;9.096;2023-07-20T09:18:27;4.20;;;2.40;;
479;SDS011;226;48.606;9.096;2023-07-20T09:20:57;2.73;;;1.90;;
479;SDS011;226;48.606;9.096;2023-07-20T09:23:30;2.40;;;2.20;;
479;SDS011;226;48.606;9.096;2023-07-20T09:25:59;2.10;;;1.80;;
479;SDS011;226;48.606;9.096;2023-07-20T09:28:28;1.83;;;1.73;;
479;SDS011;226;48.606;9.096;2023-07-20T09:30:56;2.43;;;1.90;;
479;SDS011;226;48.606;9.096;2023-07-20T09:33:26;5.20;;;2.87;;
479;SDS011;226;48.606;9.096;2023-07-20T09:36:01;2.57;;;2.00;;
479;SDS011;226;48.606;9.096;2023-07-20T09:38:50;2.33;;;2.00;;
479;SDS011;226;48.606;9.096;2023-07-20T09:41:21;4.57;;;2.27;;
479;SDS011;226;48.606;9.096;2023-07-20T09:43:52;4.67;;;1.80;;
479;SDS011;226;48.606;9.096;2023-07-20T09:46:21;3.07;;;1.40;;
479;SDS011;226;48.606;9.096;2023-07-20T09:48:54;4.27;;;1.50;;
479;SDS011;226;48.606;9.096;2023-07-20T09:51:26;2.67;;;2.23;;
479;SDS011;226;48.606;9.096;2023-07-20T09:53:54;1.63;;;1.53;;
479;SDS011;226;48.606;9.096;2023-07-20T09:56:23;3.50;;;1.77;;
479;SDS011;226;48.606;9.096;2023-07-20T09:58:53;1.63;;;1.53;;
479;SDS011;226;48.606;9.096;2023-07-20T10:01:23;2.97;;;1.60;;
479;SDS011;226;48.606;9.096;2023-07-20T10:03:55;2.00;;;1.90;;
479;SDS011;226;48.606;9.096;2023-07-20T10:06:28;1.93;;;1.67;;
479;SDS011;226;48.606;9.096;2023-07-20T10:08:58;3.13;;;1.70;;
479;SDS011;226;48.606;9.096;2023-07-20T10:11:29;2.20;;;1.50;;
479;SDS011;226;48.606;9.096;2023-07-20T10:13:58;1.47;;;1.37;;
479;SDS011;226;48.606;9.096;2023-07-20T10:16:28;2.50;;;2.00;;
479;SDS011;226;48.606;9.096;2023-07-20T10:19:01;1.47;;;1.37;;
479;SDS011;226;48.606;9.096;2023-07-20T10:21:45;2.27;;;2.07;;
479;SDS011;226;48.606;9.096;2023-07-20T10:24:21;2.30;;;1.60;;
479;SDS011;226;48.606;9.096;2023-07-20T10:26:50;2.97;;;1.70;;
479;SDS011;226;48.606;9.096;2023-07-20T10:29:19;1.60;;;1.40;;
479;SDS011;226;48.606;9.096;2023-07-20T10:31:48;1.37;;;1.27;;
479;SDS011;226;48.606;9.096;2023-07-20T10:34:21;1.93;;;1.60;;
479;SDS011;226;48.606;9.096;2023-07-20T10:36:50;3.90;;;1.60;;
479;SDS011;226;48.606;9.096;2023-07-20T10:39:23;2.10;;;1.90;;
479;SDS011;226;48.606;9.096;2023-07-20T10:42:00;2.27;;;1.63;;
479;SDS011;226;48.606;9.096;2023-07-20T10:44:29;1.87;;;1.70;;
479;SDS011;226;48.606;9.096;2023-07-20T10:46:58;2.57;;;1.73;;
479;SDS011;226;48.606;9.096;2023-07-20T10:49:32;3.03;;;1.53;;
479;SDS011;226;48.606;9.096;2023-07-20T10:52:03;1.00;;;1.00;;
479;SDS011;226;48.606;9.096;2023-07-20T10:54:33;1.70;;;1.60;;
479;SDS011;226;48.606;9.096;2023-07-20T10:59:48;1.50;;;1.40;;
479;SDS011;226;48.606;9.096;2023-07-20T11:02:17;3.80;;;1.30;;
479;SDS011;226;48.606;9.096;2023-07-20T11:04:48;1.60;;;1.50;;
479;SDS011;226;48.606;9.096;2023-07-20T11:07:17;2.07;;;1.20;;
479;SDS011;226;48.606;9.096;2023-07-20T11:09:46;1.70;;;1.60;;
479;SDS011;226;48.606;9.096;2023-07-20T11:12:17;3.03;;;1.33;;
479;SDS011;226;48.606;9.096;2023-07-20T11:14:52;1.60;;;1.50;;
479;SDS011;226;48.606;9.096;2023-07-20T11:17:28;1.80;;;1.30;;
479;SDS011;226;48.606;9.096;2023-07-20T11:19:58;2.37;;;2.17;;
479;SDS011;226;48.606;9.096;2023-07-20T11:22:30;4.57;;;1.70;;
479;SDS011;226;48.606;9.096;2023-07-20T11:24:59;2.10;;;1.60;;
479;SDS011;226;48.606;9.096;2023-07-20T11:27:28;1.57;;;1.07;;
479;SDS011;226;48.606;9.096;2023-07-20T11:29:56;1.33;;;1.27;;
479;SDS011;226;48.606;9.096;2023-07-20T11:32:24;2.27;;;1.30;;
479;SDS011;226;48.606;9.096;2023-07-20T11:34:53;1.17;;;0.90;;
479;SDS011;226;48.606;9.096;2023-07-20T11:37:23;2.03;;;1.60;;
479;SDS011;226;48.606;9.096;2023-07-20T11:39:56;2.33;;;2.13;;
479;SDS011;226;48.606;9.096;2023-07-20T11:42:24;1.57;;;1.40;;
479;SDS011;226;48.606;9.096;2023-07-20T11:44:56;2.43;;;1.50;;
479;SDS011;226;48.606;9.096;2023-07-20T11:47:28;2.20;;;1.93;;
479;SDS011;226;48.606;9.096;2023-07-20T11:49:57;2.03;;;1.83;;
479;SDS011;226;48.606;9.096;2023-07-20T11:52:32;3.73;;;1.80;;
479;SDS011;226;48.606;9.096;2023-07-20T11:55:01;1.70;;;1.60;;
479;SDS011;226;48.606;9.096;2023-07-20T11:57:31;3.73;;;1.20;;
479;SDS011;226;48.606;9.096;2023-07-20T12:00:00;1.40;;;1.30;;
479;SDS011;226;48.606;9.096;2023-07-20T12:02:32;1.70;;;1.43;;
479;SDS011;226;48.606;9.096;2023-07-20T12:05:01;2.03;;;1.63;;
479;SDS011;226;48.606;9.096;2023-07-20T12:07:35;1.40;;;1.30;;
479;SDS011;226;48.606;9.096;2023-07-20T12:10:07;1.40;;;1.30;;
479;SDS011;226;48.606;9.096;2023-07-20T12:12:37;3.83;;;1.13;;
479;SDS011;226;48.606;9.096;2023-07-20T12:15:14;1.80;;;1.23;;
479;SDS011;226;48.606;9.096;2023-07-20T12:17:42;2.53;;;1.40;;
479;SDS011;226;48.606;9.096;2023-07-20T12:20:11;1.77;;;1.20;;
479;SDS011;226;48.606;9.096;2023-07-20T12:22:40;1.40;;;1.33;;
479;SDS011;226;48.606;9.096;2023-07-20T12:25:10;2.30;;;1.17;;
479;SDS011;226;48.606;9.096;2023-07-20T12:27:39;3.53;;;1.70;;
479;SDS011;226;48.606;9.096;2023-07-20T12:30:08;1.33;;;1.23;;
479;SDS011;226;48.606;9.096;2023-07-20T12:32:36;1.63;;;1.50;;
479;SDS011;226;48.606;9.096;2023-07-20T12:35:05;4.20;;;1.93;;
479;SDS011;226;48.606;9.096;2023-07-20T12:37:34;1.10;;;1.10;;
479;SDS011;226;48.606;9.096;2023-07-20T12:40:02;1.87;;;1.47;;
479;SDS011;226;48.606;9.096;2023-07-20T12:42:32;3.83;;;1.60;;
479;SDS011;226;48.606;9.096;2023-07-20T12:45:00;1.73;;;1.37;;
479;SDS011;226;48.606;9.096;2023-07-20T12:47:29;2.60;;;1.30;;
479;SDS011;226;48.606;9.096;2023-07-20T12:49:57;1.47;;;1.10;;
479;SDS011;226;48.606;9.096;2023-07-20T12:52:26;1.53;;;1.20;;
479;SDS011;226;48.606;9.096;2023-07-20T12:54:54;4.50;;;1.47;;
479;SDS011;226;48.606;9.096;2023-07-20T12:57:23;2.10;;;1.33;;
479;SDS011;226;48.606;9.096;2023-07-20T12:59:53;2.10;;;1.90;;
479;SDS011;226;48.606;9.096;2023-07-20T13:02:21;4.67;;;1.47;;
479;SDS011;226;48.606;9.096;2023-07-20T13:04:49;3.50;;;1.70;;
479;SDS011;226;48.606;9.096;2023-07-20T13:07:22;1.77;;;1.10;;
479;SDS011;226;48.606;9.096;2023-07-20T13:10:00;1.50;;;1.40;;
479;SDS011;226;48.606;9.096;2023-07-20T13:12:29;1.93;;;1.20;;
479;SDS011;226;48.606;9.096;2023-07-20T13:14:59;1.07;;;1.07;;
479;SDS011;226;48.606;9.096;2023-07-20T13:17:28;1.33;;;1.20;;
479;SDS011;226;48.606;9.096;2023-07-20T13:19:57;1.90;;;1.80;;
479;SDS011;226;48.606;9.096;2023-07-20T13:22:25;2.23;;;1.50;;
479;SDS011;226;48.606;9.096;2023-07-20T13:24:54;1.17;;;1.17;;
479;SDS011;226;48.606;9.096;2023-07-20T13:27:22;3.80;;;1.90;;
479;SDS011;226;48.606;9.096;2023-07-20T13:29:52;3.03;;;1.80;;
479;SDS011;226;48.606;9.096;2023-07-20T13:32:21;2.10;;;1.50;;
479;SDS011;226;48.606;9.096;2023-07-20T13:34:50;1.17;;;1.10;;
479;SDS011;226;48.606;9.096;2023-07-20T13:37:19;1.53;;;1.40;;
479;SDS011;226;48.606;9.096;2023-07-20T13:39:48;1.47;;;1.37;;
479;SDS011;226;48.606;9.096;2023-07-20T13:42:16;2.40;;;1.80;;
479;SDS011;226;48.606;9.096;2023-07-20T13:44:45;2.63;;;1.57;;
479;SDS011;226;48.606;9.096;2023-07-20T13:47:14;1.23;;;1.13;;
479;SDS011;226;48.606;9.096;2023-07-20T13:49:46;1.40;;;1.17;;
479;SDS011;226;48.606;9.096;2023-07-20T13:52:29;3.90;;;1.30;;
479;SDS011;226;48.606;9.096;2023-07-20T13:55:00;3.17;;;1.20;;
479;SDS011;226;48.606;9.096;2023-07-20T13:57:31;1.47;;;1.27;;
479;SDS011;226;48.606;9.096;2023-07-20T14:00:01;2.30;;;1.00;;
479;SDS011;226;48.606;9.096;2023-07-20T14:02:31;1.20;;;1.10;;
479;SDS011;226;48.606;9.096;2023-07-20T14:05:04;1.90;;;1.30;;
479;SDS011;226;48.606;9.096;2023-07-20T14:07:36;2.10;;;1.23;;
479;SDS011;226;48.606;9.096;2023-07-20T14:10:05;1.30;;;1.20;;
479;SDS011;226;48.606;9.096;2023-07-20T14:12:37;1.47;;;1.37;;
479;SDS011;226;48.606;9.096;2023-07-20T14:15:05;1.57;;;1.17;;
479;SDS011;226;48.606;9.096;2023-07-20T14:17:34;2.70;;;1.30;;
479;SDS011;226;48.606;9.096;2023-07-20T14:20:06;1.23;;;1.13;;
479;SDS011;226;48.606;9.096;2023-07-20T14:22:47;1.10;;;1.07;;
479;SDS011;226;48.606;9.096;2023-07-20T14:25:17;1.40;;;1.30;;
479;SDS011;226;48.606;9.096;2023-07-20T14:30:29;1.63;;;1.40;;
479;SDS011;226;48.606;9.096;2023-07-20T14:32:57;1.47;;;1.07;;
479;SDS011;226;48.606;9.096;2023-07-20T14:35:27;3.47;;;1.40;;
479;SDS011;226;48.606;9.096;2023-07-20T14:37:56;2.50;;;1.30;;
479;SDS011;226;48.606;9.096;2023-07-20T14:40:24;1.20;;;1.10;;
479;SDS011;226;48.606;9.096;2023-07-20T14:42:52;1.60;;;1.50;;
479;SDS011;226;48.606;9.096;2023-07-20T14:45:21;1.50;;;1.40;;
479;SDS011;226;48.606;9.096;2023-07-20T14:47:50;5.50;;;2.27;;
479;SDS011;226;48.606;9.096;2023-07-20T14:50:20;1.13;;;1.10;;
479;SDS011;226;48.606;9.096;2023-07-20T14:52:50;1.70;;;1.27;;
479;SDS011;226;48.606;9.096;2023-07-20T14:55:19;1.07;;;1.07;;
479;SDS011;226;48.606;9.096;2023-07-20T14:57:48;2.03;;;1.40;;
479;SDS011;226;48.606;9.096;2023-07-20T15:00:17;1.33;;;1.17;;
479;SDS011;226;48.606;9.096;2023-07-20T15:02:46;1.60;;;1.30;;
479;SDS011;226;48.606;9.096;2023-07-20T15:05:20;1.70;;;1.20;;
479;SDS011;226;48.606;9.096;2023-07-20T15:07:48;1.80;;;1.40;;
479;SDS011;226;48.606;9.096;2023-07-20T15:10:18;1.03;;;0.93;;
479;SDS011;226;48.606;9.096;2023-07-20T15:12:47;1.10;;;1.10;;
479;SDS011;226;48.606;9.096;2023-07-20T15:15:15;2.30;;;1.53;;
479;SDS011;226;48.606;9.096;2023-07-20T15:17:44;0.90;;;0.90;;
479;SDS011;226;48.606;9.096;2023-07-20T15:20:13;1.03;;;0.93;;
479;SDS011;226;48.606;9.096;2023-07-20T15:22:42;1.30;;;1.20;;
479;SDS011;226;48.606;9.096;2023-07-20T15:25:15;3.03;;;1.10;;
479;SDS011;226;48.606;9.096;2023-07-20T15:27:44;4.20;;;1.50;;
479;SDS011;226;48.606;9.096;2023-07-20T15:30:16;1.37;;;1.27;;
479;SDS011;226;48.606;9.096;2023-07-20T15:32:48;2.70;;;1.37;;
479;SDS011;226;48.606;9.096;2023-07-20T15:35:19;1.70;;;1.60;;
479;SDS011;226;48.606;9.096;2023-07-20T15:37:47;1.20;;;1.10;;
479;SDS011;226;48.606;9.096;2023-07-20T15:40:16;3.97;;;1.20;;
479;SDS011;226;48.606;9.096;2023-07-20T15:42:46;1.80;;;1.70;;
479;SDS011;226;48.606;9.096;2023-07-20T15:45:18;1.63;;;1.40;;
479;SDS011;226;48.606;9.096;2023-07-20T15:47:47;1.90;;;1.73;;
479;SDS011;226;48.606;9.096;2023-07-20T15:50:15;1.40;;;1.30;;
479;SDS011;226;48.606;9.096;2023-07-20T15:52:48;1.50;;;1.40;;
479;SDS011;226;48.606;9.096;2023-07-20T15:55:16;1.37;;;1.10;;
479;SDS011;226;48.606;9.096;2023-07-20T15:57:46;2.93;;;1.23;;
479;SDS011;226;48.606;9.096;2023-07-20T16:00:15;2.10;;;1.60;;
479;SDS011;226;48.606;9.096;2023-07-20T16:02:44;2.57;;;2.37;;
479;SDS011;226;48.606;9.096;2023-07-20T16:05:15;2.00;;;1.23;;
479;SDS011;226;48.606;9.096;2023-07-20T16:07:44;2.67;;;1.63;;